Time;durP1;ratioP1;P1;durP2;ratioP2;P2;SDS_P1;SDS_P2;PMS_P1;PMS_P2;Temp;Humidity;BMP_temperature;BMP_pressure;BME280_temperature;BME280_humidity;BME280_pressure;Samples;Min_cycle;Max_cycle;Signal;HPM_P1;HPM_P2
2024/04/02 00:01:30;;;;;;;2.13;1.08;;;;;;;;;;5068875;28;20024;-86
2024/04/02 00:04:16;;;;;;;3.28;1.10;;;;;;;;;;5062509;28;20116;-85
2024/04/02 00:06:41;;;;;;;3.22;1.13;;;;;;;;;;5067651;28;20086;-86
2024/04/02 00:09:07;;;;;;;2.30;1.10;;;;;;;;;;5067930;28;20469;-86
2024/04/02 00:11:35;;;;;;;2.90;1.10;;;;;;;;;;5063076;28;20027;-81
2024/04/02 00:14:01;;;;;;;1.83;1.00;;;;;;;;;;5070183;28;20021;-81
2024/04/02 00:16:29;;;;;;;1.85;1.00;;;;;;;;;;5071510;28;20085;-81
2024/04/02 00:18:55;;;;;;;2.45;1.10;;;;;;;;;;5070435;28;20032;-81
2024/04/02 00:21:21;;;;;;;3.08;1.20;;;;;;;;;;5051523;28;20034;-82
2024/04/02 00:23:54;;;;;;;1.75;1.10;;;;;;;;;;5068213;28;20032;-82
2024/04/02 00:26:22;;;;;;;1.38;1.00;;;;;;;;;;5063082;28;20032;-81
2024/04/02 00:28:49;;;;;;;3.65;1.08;;;;;;;;;;5071808;28;20098;-82
2024/04/02 00:31:18;;;;;;;2.95;1.05;;;;;;;;;;5065519;28;20029;-81
2024/04/02 00:33:50;;;;;;;3.03;1.02;;;;;;;;;;5062202;28;20032;-83
2024/04/02 00:36:19;;;;;;;2.33;1.30;;;;;;;;;;5085081;28;20028;-82
2024/04/02 00:38:44;;;;;;;2.50;1.17;;;;;;;;;;5064565;28;20029;-83
2024/04/02 00:41:15;;;;;;;2.22;1.10;;;;;;;;;;5067629;28;20413;-83
2024/04/02 00:43:41;;;;;;;3.90;1.05;;;;;;;;;;5064708;28;20052;-82
2024/04/02 00:46:06;;;;;;;2.55;1.13;;;;;;;;;;5066587;28;20477;-82
2024/04/02 00:48:32;;;;;;;2.40;1.20;;;;;;;;;;5067646;28;20115;-83
2024/04/02 00:50:57;;;;;;;2.40;1.20;;;;;;;;;;5070479;28;20468;-82
2024/04/02 00:53:24;;;;;;;3.03;1.20;;;;;;;;;;5067791;28;20434;-84
2024/04/02 00:55:50;;;;;;;2.90;1.10;;;;;;;;;;5071055;28;20033;-82
2024/04/02 00:58:15;;;;;;;1.90;1.05;;;;;;;;;;5068387;28;20077;-82
2024/04/02 01:00:43;;;;;;;2.65;1.20;;;;;;;;;;5068305;28;20020;-85
2024/04/02 01:03:09;;;;;;;3.13;1.30;;;;;;;;;;5078791;22;20020;-83
2024/04/02 01:05:36;;;;;;;2.45;1.00;;;;;;;;;;5022697;28;20033;-83
2024/04/02 01:08:03;;;;;;;2.33;1.05;;;;;;;;;;5043238;28;20021;-83
2024/04/02 01:10:30;;;;;;;2.05;1.13;;;;;;;;;;5047261;28;20025;-83
2024/04/02 01:12:58;;;;;;;1.98;1.10;;;;;;;;;;5031070;28;20044;-82
2024/04/02 01:15:23;;;;;;;4.43;1.20;;;;;;;;;;5030245;28;20053;-83
2024/04/02 01:17:49;;;;;;;2.78;1.10;;;;;;;;;;5046267;28;20142;-82
2024/04/02 01:20:14;;;;;;;3.67;1.30;;;;;;;;;;5045780;28;20451;-83
2024/04/02 01:22:40;;;;;;;2.13;1.00;;;;;;;;;;5029340;28;20035;-82
2024/04/02 01:25:08;;;;;;;2.47;1.20;;;;;;;;;;5044149;28;20021;-82
2024/04/02 01:27:33;;;;;;;2.72;1.27;;;;;;;;;;5024786;28;20491;-83
2024/04/02 01:29:59;;;;;;;3.72;1.40;;;;;;;;;;5034296;28;20091;-82
2024/04/02 01:32:24;;;;;;;3.85;1.20;;;;;;;;;;5031691;28;20458;-82
2024/04/02 01:34:49;;;;;;;3.72;1.30;;;;;;;;;;5031077;28;20296;-82
2024/04/02 01:37:15;;;;;;;4.15;1.45;;;;;;;;;;5041462;28;20029;-83
2024/04/02 01:39:41;;;;;;;2.65;1.38;;;;;;;;;;5030463;28;20108;-82
2024/04/02 01:42:06;;;;;;;2.35;1.17;;;;;;;;;;5028663;28;20415;-82
2024/04/02 01:44:31;;;;;;;3.67;1.55;;;;;;;;;;5040155;28;20033;-82
2024/04/02 01:46:57;;;;;;;2.78;1.20;;;;;;;;;;5030393;28;20029;-83
2024/04/02 01:49:22;;;;;;;1.55;1.08;;;;;;;;;;5045241;28;20036;-82
2024/04/02 01:51:48;;;;;;;4.00;1.40;;;;;;;;;;5048456;28;20111;-82
2024/04/02 01:54:13;;;;;;;3.05;1.30;;;;;;;;;;5031641;28;20486;-82
2024/04/02 01:56:39;;;;;;;2.88;1.40;;;;;;;;;;5033815;28;20028;-83
2024/04/02 01:59:04;;;;;;;4.05;1.25;;;;;;;;;;5046585;28;20033;-82
2024/04/02 02:01:30;;;;;;;3.75;1.30;;;;;;;;;;5051324;28;20036;-82
2024/04/02 02:03:55;;;;;;;3.00;1.13;;;;;;;;;;5034064;28;20036;-83
2024/04/02 02:06:20;;;;;;;2.65;1.10;;;;;;;;;;5050964;28;20483;-83
2024/04/02 02:08:46;;;;;;;3.00;1.20;;;;;;;;;;5052593;28;20040;-82
2024/04/02 02:11:11;;;;;;;4.40;1.30;;;;;;;;;;5047615;28;20033;-83
2024/04/02 02:13:38;;;;;;;4.55;1.15;;;;;;;;;;5034561;28;20041;-82
2024/04/02 02:16:04;;;;;;;2.83;1.45;;;;;;;;;;5052126;28;20036;-83
2024/04/02 02:18:30;;;;;;;2.47;1.20;;;;;;;;;;5052790;28;20021;-82
2024/04/02 02:20:56;;;;;;;7.13;1.40;;;;;;;;;;5032754;28;20058;-82
2024/04/02 02:23:23;;;;;;;4.05;1.13;;;;;;;;;;5052264;28;20057;-83
2024/04/02 02:25:48;;;;;;;3.75;1.20;;;;;;;;;;5052348;28;20024;-83
2024/04/02 02:28:14;;;;;;;4.60;1.40;;;;;;;;;;5050214;28;20021;-82
2024/04/02 02:30:39;;;;;;;2.30;1.20;;;;;;;;;;5048340;28;20509;-83
2024/04/02 02:33:05;;;;;;;2.53;1.02;;;;;;;;;;5052229;28;20057;-82
2024/04/02 02:35:30;;;;;;;2.90;1.20;;;;;;;;;;5045917;28;20111;-82
2024/04/02 02:37:56;;;;;;;4.25;1.30;;;;;;;;;;5030306;28;20021;-83
2024/04/02 02:40:21;;;;;;;3.45;1.15;;;;;;;;;;5038024;28;20029;-82
2024/04/02 02:42:47;;;;;;;4.97;1.40;;;;;;;;;;5048227;28;20504;-82
2024/04/02 02:45:12;;;;;;;3.40;1.38;;;;;;;;;;5038792;28;20025;-83
2024/04/02 02:47:37;;;;;;;2.33;1.10;;;;;;;;;;5045657;28;20021;-82
2024/04/02 02:50:03;;;;;;;2.20;1.23;;;;;;;;;;5046887;28;20028;-82
2024/04/02 02:52:29;;;;;;;2.85;1.40;;;;;;;;;;5048902;28;20382;-83
2024/04/02 02:54:55;;;;;;;3.00;1.30;;;;;;;;;;5035342;28;20036;-83
2024/04/02 02:57:20;;;;;;;3.30;1.58;;;;;;;;;;5034869;28;20466;-83
2024/04/02 02:59:46;;;;;;;3.97;1.13;;;;;;;;;;5050066;28;20033;-82
2024/04/02 03:02:11;;;;;;;2.70;1.30;;;;;;;;;;5048587;28;20029;-82
2024/04/02 03:04:36;;;;;;;2.55;1.30;;;;;;;;;;5050095;28;20029;-83
2024/04/02 03:07:02;;;;;;;3.75;1.27;;;;;;;;;;5034927;28;20127;-82
2024/04/02 03:09:27;;;;;;;4.03;1.38;;;;;;;;;;5045483;28;20073;-83
2024/04/02 03:11:53;;;;;;;2.67;1.23;;;;;;;;;;5048111;28;20056;-82
2024/04/02 03:14:18;;;;;;;2.75;1.20;;;;;;;;;;5033247;28;20017;-83
2024/04/02 03:16:44;;;;;;;2.25;1.20;;;;;;;;;;5047684;28;20025;-83
2024/04/02 03:19:09;;;;;;;3.45;1.20;;;;;;;;;;5050115;28;20474;-83
2024/04/02 03:21:35;;;;;;;3.85;1.30;;;;;;;;;;5050642;28;20028;-83
2024/04/02 03:24:00;;;;;;;2.67;1.25;;;;;;;;;;5033869;28;20087;-83
2024/04/02 03:26:25;;;;;;;2.75;1.17;;;;;;;;;;5050594;28;20029;-76
2024/04/02 03:28:51;;;;;;;3.72;1.52;;;;;;;;;;5049338;28;20459;-76
2024/04/02 03:31:16;;;;;;;3.70;1.02;;;;;;;;;;5050996;28;20028;-76
2024/04/02 03:33:42;;;;;;;4.22;1.40;;;;;;;;;;5040366;28;20032;-76
2024/04/02 03:36:08;;;;;;;3.25;1.20;;;;;;;;;;5045886;28;20032;-76
2024/04/02 03:38:34;;;;;;;2.53;1.30;;;;;;;;;;5043551;28;20471;-76
2024/04/02 03:41:10;;;;;;;3.70;1.20;;;;;;;;;;5033750;28;20025;-76
2024/04/02 03:43:36;;;;;;;2.50;1.50;;;;;;;;;;5049180;28;20090;-76
2024/04/02 03:46:03;;;;;;;4.93;1.50;;;;;;;;;;5047821;28;20020;-76
2024/04/02 03:48:28;;;;;;;4.50;1.25;;;;;;;;;;5047990;28;20478;-76
2024/04/02 03:50:54;;;;;;;3.35;1.20;;;;;;;;;;5034356;28;20025;-76
2024/04/02 03:53:19;;;;;;;3.38;1.33;;;;;;;;;;5045557;28;20028;-76
2024/04/02 03:55:45;;;;;;;3.55;1.30;;;;;;;;;;5050173;28;20400;-76
2024/04/02 03:58:10;;;;;;;3.45;1.30;;;;;;;;;;5046467;28;20028;-76
2024/04/02 04:00:41;;;;;;;3.40;1.30;;;;;;;;;;5047248;28;20063;-76
2024/04/02 04:03:07;;;;;;;3.92;1.25;;;;;;;;;;5045049;28;20121;-76
2024/04/02 04:05:32;;;;;;;4.68;1.40;;;;;;;;;;5045883;28;20107;-76
2024/04/02 04:07:57;;;;;;;2.10;1.00;;;;;;;;;;5035510;28;20486;-76
2024/04/02 04:10:23;;;;;;;2.88;1.27;;;;;;;;;;5042707;28;20124;-76
2024/04/02 04:12:48;;;;;;;6.28;1.30;;;;;;;;;;5045583;28;20029;-76
2024/04/02 04:15:14;;;;;;;3.17;1.20;;;;;;;;;;5033012;28;20116;-76
2024/04/02 04:17:39;;;;;;;2.42;1.20;;;;;;;;;;5043151;28;20399;-76
2024/04/02 04:20:07;;;;;;;3.17;1.17;;;;;;;;;;5048428;28;20470;-76
2024/04/02 04:22:32;;;;;;;2.92;1.15;;;;;;;;;;5046676;28;20060;-76
2024/04/02 04:25:02;;;;;;;4.32;1.50;;;;;;;;;;5049822;28;20492;-76
2024/04/02 04:27:32;;;;;;;3.00;1.67;;;;;;;;;;5032797;28;20110;-76
2024/04/02 04:29:59;;;;;;;3.38;1.33;;;;;;;;;;5048409;28;20044;-76
2024/04/02 04:32:24;;;;;;;3.28;1.23;;;;;;;;;;5048588;28;20028;-76
2024/04/02 04:34:49;;;;;;;3.83;1.50;;;;;;;;;;5049354;28;20154;-76
2024/04/02 04:37:15;;;;;;;2.97;1.10;;;;;;;;;;5046570;28;20036;-76
2024/04/02 04:39:40;;;;;;;4.80;1.48;;;;;;;;;;5045010;28;20021;-76
2024/04/02 04:42:06;;;;;;;3.78;1.38;;;;;;;;;;5043195;28;20475;-76
2024/04/02 04:44:31;;;;;;;3.47;1.10;;;;;;;;;;5038577;28;20840;-76
2024/04/02 04:46:57;;;;;;;1.65;1.10;;;;;;;;;;5020468;28;20060;-75
2024/04/02 04:49:22;;;;;;;2.83;1.10;;;;;;;;;;5043954;28;20039;-76
2024/04/02 04:51:47;;;;;;;2.55;1.20;;;;;;;;;;5049964;28;20078;-76
2024/04/02 04:54:13;;;;;;;2.90;1.30;;;;;;;;;;5047674;28;20021;-75
2024/04/02 04:56:38;;;;;;;4.38;1.20;;;;;;;;;;5048601;28;20039;-75
2024/04/02 04:59:04;;;;;;;2.55;1.20;;;;;;;;;;5051101;28;20017;-76
2024/04/02 05:01:29;;;;;;;4.40;1.35;;;;;;;;;;5031393;28;20043;-76
2024/04/02 05:03:54;;;;;;;3.53;1.27;;;;;;;;;;5049060;28;20029;-76
2024/04/02 05:06:21;;;;;;;3.08;1.42;;;;;;;;;;5050087;28;20013;-76
2024/04/02 05:08:47;;;;;;;2.63;1.20;;;;;;;;;;5046034;28;20035;-76
2024/04/02 05:11:12;;;;;;;5.55;1.25;;;;;;;;;;5049371;28;20028;-76
2024/04/02 05:13:40;;;;;;;2.85;1.38;;;;;;;;;;5048160;28;20036;-76
2024/04/02 05:16:06;;;;;;;5.07;1.42;;;;;;;;;;5045772;28;20491;-75
2024/04/02 05:18:32;;;;;;;2.92;1.40;;;;;;;;;;5047235;28;20067;-76
2024/04/02 05:20:58;;;;;;;3.15;1.27;;;;;;;;;;5046242;28;20066;-76
2024/04/02 05:23:23;;;;;;;5.78;1.40;;;;;;;;;;5025776;28;20033;-76
2024/04/02 05:25:49;;;;;;;4.55;1.27;;;;;;;;;;5028844;28;20052;-76
2024/04/02 05:28:15;;;;;;;3.42;1.42;;;;;;;;;;5026762;28;21525;-76
2024/04/02 05:30:40;;;;;;;3.88;1.40;;;;;;;;;;5041127;28;20025;-75
2024/04/02 05:33:05;;;;;;;2.42;1.13;;;;;;;;;;5048985;28;20395;-75
2024/04/02 05:35:31;;;;;;;4.15;1.50;;;;;;;;;;5051068;28;20112;-75
2024/04/02 05:37:57;;;;;;;6.07;1.50;;;;;;;;;;5052348;28;20170;-75
2024/04/02 05:40:24;;;;;;;5.53;1.60;;;;;;;;;;5050187;28;20493;-75
2024/04/02 05:42:49;;;;;;;3.08;1.25;;;;;;;;;;5051892;28;20060;-75
2024/04/02 05:45:16;;;;;;;3.65;1.23;;;;;;;;;;5049948;28;20454;-80
2024/04/02 05:47:43;;;;;;;3.55;1.35;;;;;;;;;;5033297;28;20071;-75
2024/04/02 05:50:08;;;;;;;3.97;1.50;;;;;;;;;;5050873;28;20067;-75
2024/04/02 05:52:34;;;;;;;5.35;1.48;;;;;;;;;;5051752;28;20052;-75
2024/04/02 05:54:59;;;;;;;4.32;1.40;;;;;;;;;;5049457;28;20028;-75
2024/04/02 05:57:25;;;;;;;3.22;1.23;;;;;;;;;;5051781;28;20033;-75
2024/04/02 05:59:50;;;;;;;5.35;1.40;;;;;;;;;;5053113;28;20371;-75
2024/04/02 06:02:17;;;;;;;3.95;1.42;;;;;;;;;;5039701;28;20032;-75
2024/04/02 06:04:42;;;;;;;3.53;1.38;;;;;;;;;;5040043;28;20028;-76
2024/04/02 06:07:08;;;;;;;4.45;1.77;;;;;;;;;;5049744;28;20025;-75
2024/04/02 06:09:33;;;;;;;6.57;1.80;;;;;;;;;;5046078;28;20552;-75
2024/04/02 06:11:58;;;;;;;4.45;1.67;;;;;;;;;;5046697;28;20445;-75
2024/04/02 06:14:24;;;;;;;4.78;1.42;;;;;;;;;;5046987;28;20035;-75
2024/04/02 06:16:49;;;;;;;4.50;1.30;;;;;;;;;;5035818;28;20028;-75
2024/04/02 06:19:15;;;;;;;3.53;1.38;;;;;;;;;;5047167;28;20116;-75
2024/04/02 06:21:40;;;;;;;3.70;1.63;;;;;;;;;;5037296;28;20398;-75
2024/04/02 06:24:05;;;;;;;7.32;1.67;;;;;;;;;;5047312;28;20025;-75
2024/04/02 06:26:31;;;;;;;4.80;1.60;;;;;;;;;;5051857;28;20079;-75
2024/04/02 06:28:56;;;;;;;6.60;1.45;;;;;;;;;;5048270;28;20045;-75
2024/04/02 06:31:22;;;;;;;6.18;1.40;;;;;;;;;;5045523;28;20036;-75
2024/04/02 06:33:47;;;;;;;4.25;1.42;;;;;;;;;;5050386;28;20029;-75
2024/04/02 06:36:12;;;;;;;3.97;1.40;;;;;;;;;;5035948;28;20033;-75
2024/04/02 06:38:38;;;;;;;7.25;2.00;;;;;;;;;;5047412;28;20024;-75
2024/04/02 06:41:03;;;;;;;5.45;1.90;;;;;;;;;;5045905;28;20459;-75
2024/04/02 06:43:29;;;;;;;4.78;1.80;;;;;;;;;;5046466;28;20033;-75
2024/04/02 06:45:55;;;;;;;5.18;1.70;;;;;;;;;;5048005;28;20509;-75
2024/04/02 06:48:22;;;;;;;6.63;1.88;;;;;;;;;;5048752;28;20037;-75
2024/04/02 06:51:03;;;;;;;7.78;2.20;;;;;;;;;;5047038;28;20558;-75
2024/04/02 06:53:30;;;;;;;6.88;2.20;;;;;;;;;;5049952;28;20032;-76
2024/04/02 06:55:56;;;;;;;5.45;1.95;;;;;;;;;;5051604;28;20029;-76
2024/04/02 06:58:22;;;;;;;8.52;2.63;;;;;;;;;;5039647;28;20081;-75
2024/04/02 07:00:48;;;;;;;7.47;2.30;;;;;;;;;;5038346;28;20021;-76
2024/04/02 07:03:20;;;;;;;8.05;2.33;;;;;;;;;;5040418;28;20025;-76
2024/04/02 07:05:47;;;;;;;7.75;2.25;;;;;;;;;;5049452;28;20044;-78
2024/04/02 07:08:13;;;;;;;6.25;2.35;;;;;;;;;;5035556;28;20075;-77
2024/04/02 07:10:40;;;;;;;10.55;1.92;;;;;;;;;;5047857;28;20108;-75
2024/04/02 07:13:06;;;;;;;6.15;2.28;;;;;;;;;;5045407;28;20029;-75
2024/04/02 07:15:31;;;;;;;8.07;2.30;;;;;;;;;;5030335;28;20029;-75
2024/04/02 07:17:57;;;;;;;8.65;2.30;;;;;;;;;;5048404;28;20560;-75
2024/04/02 07:20:23;;;;;;;5.57;2.28;;;;;;;;;;5051679;28;20356;-75
2024/04/02 07:22:49;;;;;;;9.07;2.08;;;;;;;;;;5030725;28;20048;-75
2024/04/02 07:25:14;;;;;;;8.57;2.10;;;;;;;;;;5048560;28;20479;-75
2024/04/02 07:27:40;;;;;;;8.85;2.30;;;;;;;;;;5049781;28;20498;-77
2024/04/02 07:30:07;;;;;;;9.07;2.45;;;;;;;;;;5039466;28;20021;-77
2024/04/02 07:32:33;;;;;;;7.38;2.10;;;;;;;;;;5045601;28;20025;-77
2024/04/02 07:34:58;;;;;;;8.07;2.42;;;;;;;;;;5042854;28;20051;-78
2024/04/02 07:37:24;;;;;;;7.20;2.08;;;;;;;;;;5048954;28;20036;-77
2024/04/02 07:39:51;;;;;;;7.72;2.00;;;;;;;;;;5044598;28;20028;-77
2024/04/02 07:42:16;;;;;;;5.45;1.90;;;;;;;;;;5046307;28;20021;-77
2024/04/02 07:44:42;;;;;;;8.80;2.22;;;;;;;;;;5045769;28;20553;-77
2024/04/02 07:47:07;;;;;;;6.10;2.03;;;;;;;;;;5047782;28;20044;-77
2024/04/02 07:49:33;;;;;;;9.27;2.33;;;;;;;;;;5044912;28;20040;-76
2024/04/02 07:51:58;;;;;;;8.90;2.25;;;;;;;;;;5047541;28;20036;-77
2024/04/02 07:54:23;;;;;;;6.97;2.30;;;;;;;;;;5044228;28;20021;-77
2024/04/02 07:56:49;;;;;;;7.80;2.58;;;;;;;;;;5035658;28;20090;-77
2024/04/02 07:59:14;;;;;;;6.57;2.00;;;;;;;;;;5043267;28;20025;-77
2024/04/02 08:01:39;;;;;;;4.53;1.80;;;;;;;;;;5047321;28;20086;-77
2024/04/02 08:04:05;;;;;;;11.93;2.00;;;;;;;;;;5045842;28;20033;-76
2024/04/02 08:06:30;;;;;;;7.57;2.03;;;;;;;;;;5050179;28;20418;-82
2024/04/02 08:08:56;;;;;;;9.07;2.00;;;;;;;;;;5043169;28;20029;-81
2024/04/02 08:11:21;;;;;;;6.30;1.95;;;;;;;;;;5048500;28;20021;-82
2024/04/02 08:13:47;;;;;;;6.53;2.10;;;;;;;;;;5048086;28;20033;-81
2024/04/02 08:16:17;;;;;;;9.05;2.15;;;;;;;;;;5047859;28;20040;-81
2024/04/02 08:18:46;;;;;;;4.28;1.70;;;;;;;;;;5049255;28;20035;-82
2024/04/02 08:21:12;;;;;;;8.25;2.28;;;;;;;;;;5041521;28;20025;-81
2024/04/02 08:23:37;;;;;;;9.00;2.33;;;;;;;;;;5046078;28;20375;-82
2024/04/02 08:26:03;;;;;;;10.25;2.47;;;;;;;;;;5037364;28;20064;-82
2024/04/02 08:28:28;;;;;;;8.63;2.17;;;;;;;;;;5047405;28;20047;-82
2024/04/02 08:30:54;;;;;;;5.85;1.80;;;;;;;;;;5036341;28;20036;-82
2024/04/02 08:33:20;;;;;;;8.25;2.28;;;;;;;;;;5046041;28;20487;-82
2024/04/02 08:35:49;;;;;;;7.53;1.80;;;;;;;;;;5045283;28;20033;-82
2024/04/02 08:38:14;;;;;;;7.47;1.92;;;;;;;;;;5039114;28;20028;-82
2024/04/02 08:40:40;;;;;;;10.63;2.70;;;;;;;;;;5046830;28;20021;-82
2024/04/02 08:43:06;;;;;;;7.35;1.95;;;;;;;;;;5037445;28;20124;-82
2024/04/02 08:45:32;;;;;;;9.27;2.13;;;;;;;;;;5047523;28;20021;-82
2024/04/02 08:47:58;;;;;;;9.90;2.75;;;;;;;;;;5043789;28;20020;-82
2024/04/02 08:50:24;;;;;;;7.22;2.10;;;;;;;;;;5042392;28;20541;-82
2024/04/02 08:52:51;;;;;;;5.80;1.80;;;;;;;;;;5039673;28;20029;-82
2024/04/02 08:55:19;;;;;;;8.93;2.10;;;;;;;;;;5045590;28;20047;-81
2024/04/02 08:57:49;;;;;;;11.30;2.13;;;;;;;;;;5048916;28;20037;-82
2024/04/02 09:00:16;;;;;;;9.98;2.60;;;;;;;;;;5042750;28;20152;-82
2024/04/02 09:02:46;;;;;;;8.48;1.65;;;;;;;;;;5048075;28;20029;-82
2024/04/02 09:05:12;;;;;;;8.27;1.67;;;;;;;;;;5047580;28;20025;-82
2024/04/02 09:07:38;;;;;;;4.88;1.55;;;;;;;;;;5048261;28;20432;-82
2024/04/02 09:10:03;;;;;;;9.80;1.95;;;;;;;;;;5042524;28;20033;-81
2024/04/02 09:12:29;;;;;;;5.45;1.90;;;;;;;;;;5046372;28;20487;-82
2024/04/02 09:14:54;;;;;;;6.25;1.70;;;;;;;;;;5050108;28;20029;-82
2024/04/02 09:17:19;;;;;;;5.68;1.58;;;;;;;;;;5034054;28;20021;-81
2024/04/02 09:19:45;;;;;;;3.85;1.27;;;;;;;;;;5053140;28;20475;-81
2024/04/02 09:22:11;;;;;;;5.78;1.52;;;;;;;;;;5049555;28;20033;-82
2024/04/02 09:24:36;;;;;;;10.23;1.73;;;;;;;;;;5042498;28;20436;-82
2024/04/02 09:27:02;;;;;;;8.27;1.50;;;;;;;;;;5053511;28;20134;-82
2024/04/02 09:29:27;;;;;;;8.55;2.33;;;;;;;;;;5046764;28;20120;-82
2024/04/02 09:31:53;;;;;;;10.70;1.58;;;;;;;;;;5052421;28;21290;-82
2024/04/02 09:34:21;;;;;;;7.40;1.60;;;;;;;;;;5047289;28;20025;-82
2024/04/02 09:37:12;;;;;;;4.85;1.58;;;;;;;;;;5046748;28;20030;-82
2024/04/02 09:39:40;;;;;;;7.22;2.10;;;;;;;;;;5028575;28;20020;-82
2024/04/02 09:42:08;;;;;;;5.57;1.85;;;;;;;;;;5046994;28;20074;-82
2024/04/02 09:44:33;;;;;;;6.00;1.40;;;;;;;;;;5056559;28;20021;-82
2024/04/02 09:47:00;;;;;;;7.50;1.58;;;;;;;;;;5045224;28;20043;-81
2024/04/02 09:49:26;;;;;;;5.47;1.50;;;;;;;;;;5042123;28;20543;-81
2024/04/02 09:51:55;;;;;;;5.97;1.65;;;;;;;;;;5044858;28;20541;-82
2024/04/02 09:54:22;;;;;;;5.95;1.42;;;;;;;;;;5050492;28;20117;-82
2024/04/02 09:56:49;;;;;;;5.97;1.40;;;;;;;;;;5049189;28;20406;-82
2024/04/02 09:59:14;;;;;;;4.20;1.50;;;;;;;;;;5026100;28;20024;-82
2024/04/02 10:01:42;;;;;;;6.00;1.48;;;;;;;;;;5048542;28;20029;-83
2024/04/02 10:04:10;;;;;;;5.95;1.40;;;;;;;;;;5043243;28;20037;-82
2024/04/02 10:06:36;;;;;;;3.88;1.50;;;;;;;;;;5047750;28;20029;-83
2024/04/02 10:09:05;;;;;;;5.45;1.33;;;;;;;;;;5044892;28;20030;-82
2024/04/02 10:11:40;;;;;;;8.60;1.83;;;;;;;;;;5046199;28;20596;-82
2024/04/02 10:14:09;;;;;;;8.50;1.80;;;;;;;;;;5046256;28;20098;-82
2024/04/02 10:16:38;;;;;;;5.28;1.50;;;;;;;;;;5045034;28;20028;-82
2024/04/02 10:19:03;;;;;;;4.00;1.55;;;;;;;;;;5050483;28;20063;-82
2024/04/02 10:21:33;;;;;;;5.72;1.60;;;;;;;;;;5040658;28;20025;-82
2024/04/02 10:23:59;;;;;;;4.90;1.40;;;;;;;;;;5042851;28;20397;-82
2024/04/02 10:26:30;;;;;;;5.72;1.48;;;;;;;;;;5047140;28;20470;-82
2024/04/02 10:28:55;;;;;;;4.88;1.25;;;;;;;;;;5047795;28;20033;-83
2024/04/02 10:31:21;;;;;;;6.65;1.48;;;;;;;;;;5047794;28;20530;-84
2024/04/02 10:33:50;;;;;;;5.70;1.58;;;;;;;;;;5047617;28;20040;-83
2024/04/02 10:36:16;;;;;;;6.82;1.38;;;;;;;;;;5051272;28;20251;-83
2024/04/02 10:38:42;;;;;;;5.25;1.48;;;;;;;;;;5053224;28;20032;-83
2024/04/02 10:41:07;;;;;;;4.20;1.10;;;;;;;;;;5044469;28;20399;-82
2024/04/02 10:43:33;;;;;;;5.30;1.40;;;;;;;;;;5045868;28;20029;-83
2024/04/02 10:45:59;;;;;;;5.32;1.27;;;;;;;;;;5041185;28;20540;-83
2024/04/02 10:48:24;;;;;;;5.20;1.20;;;;;;;;;;5044109;28;20021;-83
2024/04/02 10:50:53;;;;;;;4.10;1.30;;;;;;;;;;5052762;28;20040;-82
2024/04/02 10:53:18;;;;;;;6.30;1.33;;;;;;;;;;5038671;28;20033;-83
2024/04/02 10:55:43;;;;;;;7.38;1.60;;;;;;;;;;5053054;28;20028;-83
2024/04/02 10:58:10;;;;;;;6.03;1.52;;;;;;;;;;5046469;28;20037;-82
2024/04/02 11:00:36;;;;;;;5.15;1.67;;;;;;;;;;5052493;28;20044;-83
2024/04/02 11:03:02;;;;;;;4.60;1.40;;;;;;;;;;5049903;28;20108;-83
2024/04/02 11:05:28;;;;;;;4.55;1.45;;;;;;;;;;5049414;28;20124;-82
2024/04/02 11:07:53;;;;;;;5.35;1.60;;;;;;;;;;5042342;28;20554;-82
2024/04/02 11:10:18;;;;;;;4.00;1.40;;;;;;;;;;5042534;28;20040;-82
2024/04/02 11:12:44;;;;;;;4.05;1.50;;;;;;;;;;5049778;28;20441;-82
2024/04/02 11:15:11;;;;;;;5.50;1.48;;;;;;;;;;5048950;28;20120;-82
2024/04/02 11:17:37;;;;;;;5.57;1.45;;;;;;;;;;5051256;28;20025;-82
2024/04/02 11:20:09;;;;;;;4.63;1.60;;;;;;;;;;5040700;28;20075;-82
2024/04/02 11:25:19;;;;;;;5.32;1.63;;;;;;;;;;5052065;28;20087;-82
2024/04/02 11:27:45;;;;;;;4.70;1.40;;;;;;;;;;5049888;28;20033;-82
2024/04/02 11:30:11;;;;;;;4.78;1.88;;;;;;;;;;5035141;28;20036;-83
2024/04/02 11:32:36;;;;;;;4.05;1.48;;;;;;;;;;5044897;28;20124;-82
2024/04/02 11:35:04;;;;;;;4.32;1.90;;;;;;;;;;5045270;28;20124;-82
2024/04/02 11:37:31;;;;;;;3.90;1.20;;;;;;;;;;5042474;28;20025;-82
2024/04/02 11:39:58;;;;;;;3.03;1.42;;;;;;;;;;5050013;28;20016;-82
2024/04/02 11:42:25;;;;;;;4.22;1.30;;;;;;;;;;5044677;28;20399;-82
2024/04/02 11:44:53;;;;;;;4.72;1.27;;;;;;;;;;5050372;28;20613;-82
2024/04/02 11:47:19;;;;;;;4.75;1.30;;;;;;;;;;5048347;28;20025;-82
2024/04/02 11:49:44;;;;;;;8.30;1.65;;;;;;;;;;5051331;28;20025;-82
2024/04/02 11:52:10;;;;;;;3.38;1.30;;;;;;;;;;5048948;28;20445;-82
2024/04/02 11:54:36;;;;;;;4.72;1.50;;;;;;;;;;5026862;28;20077;-82
2024/04/02 12:00:10;;;;;;;6.15;1.50;;;;;;;;;;5050816;28;20039;-81
2024/04/02 12:02:40;;;;;;;5.32;1.52;;;;;;;;;;5051492;28;20495;-82
2024/04/02 12:05:06;;;;;;;5.13;1.60;;;;;;;;;;5048531;28;20460;-82
2024/04/02 12:07:32;;;;;;;7.15;1.80;;;;;;;;;;5034150;28;20033;-82
2024/04/02 12:09:58;;;;;;;4.63;1.48;;;;;;;;;;5044627;28;20479;-82
2024/04/02 12:12:24;;;;;;;4.05;1.40;;;;;;;;;;5045188;28;20020;-82
2024/04/02 12:14:50;;;;;;;4.63;1.77;;;;;;;;;;5047843;28;20566;-82
2024/04/02 12:17:15;;;;;;;3.67;1.40;;;;;;;;;;5049299;28;20063;-82
2024/04/02 12:19:41;;;;;;;5.32;1.40;;;;;;;;;;5043449;28;20506;-82
2024/04/02 12:22:06;;;;;;;4.50;1.30;;;;;;;;;;5046351;28;20025;-82
2024/04/02 12:24:33;;;;;;;6.03;1.80;;;;;;;;;;5044253;28;20055;-82
2024/04/02 12:26:59;;;;;;;4.93;1.45;;;;;;;;;;5051336;28;20491;-82
2024/04/02 12:29:24;;;;;;;3.67;1.45;;;;;;;;;;5041905;28;20063;-82
2024/04/02 12:31:49;;;;;;;3.97;1.38;;;;;;;;;;5043738;28;20032;-82
2024/04/02 12:34:18;;;;;;;5.57;1.52;;;;;;;;;;5048216;28;20067;-82
2024/04/02 12:36:44;;;;;;;4.85;1.50;;;;;;;;;;5049148;28;20036;-82
2024/04/02 12:39:09;;;;;;;5.72;1.80;;;;;;;;;;5034532;28;20035;-82
2024/04/02 12:41:35;;;;;;;5.57;1.77;;;;;;;;;;5046686;28;20020;-82
2024/04/02 12:44:00;;;;;;;7.50;1.95;;;;;;;;;;5032408;28;20033;-82
2024/04/02 12:46:25;;;;;;;6.15;1.85;;;;;;;;;;5031704;28;20061;-82
2024/04/02 12:48:51;;;;;;;5.28;1.80;;;;;;;;;;5045010;28;20033;-83
2024/04/02 12:51:16;;;;;;;5.25;1.85;;;;;;;;;;5049155;28;20032;-82
2024/04/02 12:53:41;;;;;;;4.43;2.00;;;;;;;;;;5048354;28;20087;-82
2024/04/02 12:56:08;;;;;;;6.53;2.10;;;;;;;;;;5046014;28;20306;-81
2024/04/02 12:58:34;;;;;;;4.53;1.77;;;;;;;;;;5049070;28;20056;-81
2024/04/02 13:01:03;;;;;;;4.95;1.60;;;;;;;;;;5046491;28;20053;-81
2024/04/02 13:03:29;;;;;;;5.25;1.83;;;;;;;;;;5045961;28;20029;-81
2024/04/02 13:05:54;;;;;;;5.32;1.65;;;;;;;;;;5029527;28;20064;-82
2024/04/02 13:08:20;;;;;;;4.68;1.80;;;;;;;;;;5040694;28;20056;-81
2024/04/02 13:10:48;;;;;;;4.90;1.48;;;;;;;;;;5034670;28;20079;-81
2024/04/02 13:13:15;;;;;;;5.38;2.17;;;;;;;;;;5053946;28;20401;-81
2024/04/02 13:15:40;;;;;;;4.70;1.60;;;;;;;;;;5047259;28;20123;-81
2024/04/02 13:18:06;;;;;;;4.15;1.48;;;;;;;;;;5048135;28;20124;-81
2024/04/02 13:20:32;;;;;;;6.18;1.90;;;;;;;;;;5024910;28;20017;-81
2024/04/02 13:22:57;;;;;;;5.13;1.90;;;;;;;;;;5044487;28;20521;-81
2024/04/02 13:25:23;;;;;;;5.13;1.83;;;;;;;;;;5029858;28;20554;-81
2024/04/02 13:27:49;;;;;;;5.80;2.00;;;;;;;;;;5036590;28;20025;-81
2024/04/02 13:30:16;;;;;;;5.05;2.35;;;;;;;;;;5041401;28;20385;-81
2024/04/02 13:32:44;;;;;;;6.00;2.22;;;;;;;;;;5043158;28;20119;-81
2024/04/02 13:35:10;;;;;;;6.53;2.00;;;;;;;;;;5025578;28;20028;-81
2024/04/02 13:37:35;;;;;;;6.10;2.00;;;;;;;;;;5040009;28;20027;-82
2024/04/02 13:40:04;;;;;;;7.28;2.13;;;;;;;;;;5036275;28;20059;-82
2024/04/02 13:42:30;;;;;;;4.50;1.90;;;;;;;;;;5037335;28;20129;-82
2024/04/02 13:44:55;;;;;;;3.97;1.60;;;;;;;;;;5035911;28;20107;-81
2024/04/02 13:47:20;;;;;;;6.10;2.08;;;;;;;;;;5040065;28;20437;-81
2024/04/02 13:49:46;;;;;;;6.15;1.80;;;;;;;;;;5040784;28;20418;-81
2024/04/02 13:52:11;;;;;;;5.15;2.00;;;;;;;;;;5042161;28;20091;-82
2024/04/02 13:54:36;;;;;;;5.38;1.85;;;;;;;;;;5028702;28;20120;-82
2024/04/02 13:57:02;;;;;;;6.20;2.10;;;;;;;;;;5039849;28;20106;-81
2024/04/02 13:59:28;;;;;;;6.97;2.00;;;;;;;;;;5043671;28;20060;-81
2024/04/02 14:01:53;;;;;;;5.57;1.90;;;;;;;;;;5046136;28;20107;-82
2024/04/02 14:04:18;;;;;;;3.88;1.80;;;;;;;;;;5046981;28;20033;-81
2024/04/02 14:06:44;;;;;;;5.55;2.10;;;;;;;;;;5047453;28;20041;-81
2024/04/02 14:09:09;;;;;;;4.93;2.10;;;;;;;;;;5047629;28;20406;-81
2024/04/02 14:11:35;;;;;;;5.03;2.05;;;;;;;;;;5032373;28;20405;-81
2024/04/02 14:14:02;;;;;;;3.88;2.00;;;;;;;;;;5048037;28;20021;-81
2024/04/02 14:16:28;;;;;;;8.23;2.28;;;;;;;;;;5042297;28;20024;-81
2024/04/02 14:18:55;;;;;;;6.28;2.17;;;;;;;;;;5046763;28;20528;-81
2024/04/02 14:21:21;;;;;;;7.50;2.72;;;;;;;;;;5045980;28;20501;-82
2024/04/02 14:23:47;;;;;;;7.00;2.40;;;;;;;;;;5036770;28;20037;-81
2024/04/02 14:26:12;;;;;;;4.80;2.10;;;;;;;;;;5047690;28;20044;-82
2024/04/02 14:28:45;;;;;;;3.95;1.98;;;;;;;;;;5049752;28;20041;-81
2024/04/02 14:31:24;;;;;;;5.22;2.30;;;;;;;;;;5044406;28;20033;-81
2024/04/02 14:33:51;;;;;;;4.18;2.10;;;;;;;;;;5044492;28;20041;-81
2024/04/02 14:36:17;;;;;;;5.93;2.40;;;;;;;;;;5046989;28;20028;-82
2024/04/02 14:38:42;;;;;;;4.63;2.03;;;;;;;;;;5045790;28;20073;-81
2024/04/02 14:41:08;;;;;;;5.07;1.95;;;;;;;;;;5049435;28;20033;-81
2024/04/02 14:43:36;;;;;;;5.40;1.90;;;;;;;;;;5046669;28;20025;-82